sensor_id;sensor_type;location;lat;lon;timestamp;P1;durP1;ratioP1;P2;durP2;ratioP2
53533;SDS011;39421;53.204;6.568;2022-10-23T00:03:44;13.15;;;7.15;;
53533;SDS011;39421;53.204;6.568;2022-10-23T00:06:10;14.93;;;7.30;;
53533;SDS011;39421;53.204;6.568;2022-10-23T00:08:37;13.15;;;7.40;;
53533;SDS011;39421;53.204;6.568;2022-10-23T00:11:07;11.85;;;8.38;;
53533;SDS011;39421;53.204;6.568;2022-10-23T00:13:38;13.40;;;7.55;;
53533;SDS011;39421;53.204;6.568;2022-10-23T00:16:04;13.05;;;7.55;;
53533;SDS011;39421;53.204;6.568;2022-10-23T00:18:30;14.18;;;8.48;;
53533;SDS011;39421;53.204;6.568;2022-10-23T00:20:55;13.93;;;7.95;;
53533;SDS011;39421;53.204;6.568;2022-10-23T00:23:21;12.00;;;7.93;;
53533;SDS011;39421;53.204;6.568;2022-10-23T00:25:47;14.13;;;8.00;;
53533;SDS011;39421;53.204;6.568;2022-10-23T00:28:13;14.00;;;8.07;;
53533;SDS011;39421;53.204;6.568;2022-10-23T00:30:39;16.23;;;8.90;;
53533;SDS011;39421;53.204;6.568;2022-10-23T00:33:05;14.93;;;8.30;;
53533;SDS011;39421;53.204;6.568;2022-10-23T00:35:30;10.68;;;7.78;;
53533;SDS011;39421;53.204;6.568;2022-10-23T00:37:56;13.45;;;8.10;;
53533;SDS011;39421;53.204;6.568;2022-10-23T00:40:22;13.83;;;8.97;;
53533;SDS011;39421;53.204;6.568;2022-10-23T00:42:47;17.65;;;9.23;;
53533;SDS011;39421;53.204;6.568;2022-10-23T00:45:23;12.87;;;8.87;;
53533;SDS011;39421;53.204;6.568;2022-10-23T00:47:52;15.85;;;9.13;;
53533;SDS011;39421;53.204;6.568;2022-10-23T00:50:18;15.57;;;9.18;;
53533;SDS011;39421;53.204;6.568;2022-10-23T00:52:47;17.45;;;9.15;;
53533;SDS011;39421;53.204;6.568;2022-10-23T00:55:16;14.80;;;9.18;;
53533;SDS011;39421;53.204;6.568;2022-10-23T00:57:44;14.55;;;9.05;;
53533;SDS011;39421;53.204;6.568;2022-10-23T01:00:16;14.30;;;9.30;;
53533;SDS011;39421;53.204;6.568;2022-10-23T01:02:47;15.07;;;9.35;;
53533;SDS011;39421;53.204;6.568;2022-10-23T01:05:13;16.48;;;9.30;;
53533;SDS011;39421;53.204;6.568;2022-10-23T01:07:42;15.63;;;9.60;;
53533;SDS011;39421;53.204;6.568;2022-10-23T01:15:35;17.48;;;9.40;;
53533;SDS011;39421;53.204;6.568;2022-10-23T01:18:14;18.95;;;10.27;;
53533;SDS011;39421;53.204;6.568;2022-10-23T01:20:58;15.55;;;10.10;;
53533;SDS011;39421;53.204;6.568;2022-10-23T01:31:45;15.33;;;9.73;;
53533;SDS011;39421;53.204;6.568;2022-10-23T01:37:21;17.98;;;9.63;;
53533;SDS011;39421;53.204;6.568;2022-10-23T01:39:52;18.35;;;10.77;;
53533;SDS011;39421;53.204;6.568;2022-10-23T01:42:27;18.67;;;10.65;;
53533;SDS011;39421;53.204;6.568;2022-10-23T01:47:26;17.58;;;10.90;;
53533;SDS011;39421;53.204;6.568;2022-10-23T01:49:54;16.98;;;10.50;;
53533;SDS011;39421;53.204;6.568;2022-10-23T01:52:22;15.97;;;10.00;;
53533;SDS011;39421;53.204;6.568;2022-10-23T01:54:48;16.20;;;9.52;;
53533;SDS011;39421;53.204;6.568;2022-10-23T01:57:15;14.07;;;9.73;;
53533;SDS011;39421;53.204;6.568;2022-10-23T01:59:45;13.90;;;9.40;;
53533;SDS011;39421;53.204;6.568;2022-10-23T02:02:15;15.38;;;9.55;;
53533;SDS011;39421;53.204;6.568;2022-10-23T02:04:56;14.43;;;9.90;;
53533;SDS011;39421;53.204;6.568;2022-10-23T02:07:29;13.55;;;9.75;;
53533;SDS011;39421;53.204;6.568;2022-10-23T02:09:55;14.20;;;9.63;;
53533;SDS011;39421;53.204;6.568;2022-10-23T02:12:31;13.68;;;10.02;;
53533;SDS011;39421;53.204;6.568;2022-10-23T02:15:14;16.33;;;10.23;;
53533;SDS011;39421;53.204;6.568;2022-10-23T02:20:37;13.73;;;9.40;;
53533;SDS011;39421;53.204;6.568;2022-10-23T02:23:11;12.73;;;9.10;;
53533;SDS011;39421;53.204;6.568;2022-10-23T02:25:48;12.02;;;8.65;;
53533;SDS011;39421;53.204;6.568;2022-10-23T02:28:22;13.27;;;9.10;;
53533;SDS011;39421;53.204;6.568;2022-10-23T02:30:51;13.88;;;8.65;;
53533;SDS011;39421;53.204;6.568;2022-10-23T02:33:19;11.55;;;8.15;;
53533;SDS011;39421;53.204;6.568;2022-10-23T02:35:45;13.02;;;9.10;;
53533;SDS011;39421;53.204;6.568;2022-10-23T02:38:32;13.93;;;8.23;;
53533;SDS011;39421;53.204;6.568;2022-10-23T02:43:40;9.57;;;7.63;;
53533;SDS011;39421;53.204;6.568;2022-10-23T02:46:20;11.63;;;7.50;;
53533;SDS011;39421;53.204;6.568;2022-10-23T02:49:04;10.07;;;7.30;;
53533;SDS011;39421;53.204;6.568;2022-10-23T03:00:14;8.65;;;6.68;;
53533;SDS011;39421;53.204;6.568;2022-10-23T03:02:46;8.23;;;6.40;;
53533;SDS011;39421;53.204;6.568;2022-10-23T03:05:15;9.07;;;6.57;;
53533;SDS011;39421;53.204;6.568;2022-10-23T03:07:44;8.70;;;6.67;;
53533;SDS011;39421;53.204;6.568;2022-10-23T03:10:11;8.82;;;6.60;;
53533;SDS011;39421;53.204;6.568;2022-10-23T03:12:37;8.40;;;6.43;;
53533;SDS011;39421;53.204;6.568;2022-10-23T03:15:04;7.97;;;6.28;;
53533;SDS011;39421;53.204;6.568;2022-10-23T03:17:30;7.63;;;6.43;;
53533;SDS011;39421;53.204;6.568;2022-10-23T03:19:56;8.20;;;6.83;;
53533;SDS011;39421;53.204;6.568;2022-10-23T03:22:21;7.70;;;6.23;;
53533;SDS011;39421;53.204;6.568;2022-10-23T03:24:47;7.95;;;6.63;;
53533;SDS011;39421;53.204;6.568;2022-10-23T03:27:13;8.40;;;6.57;;
53533;SDS011;39421;53.204;6.568;2022-10-23T03:29:38;8.70;;;7.22;;
53533;SDS011;39421;53.204;6.568;2022-10-23T03:32:04;8.90;;;7.30;;
53533;SDS011;39421;53.204;6.568;2022-10-23T03:34:30;7.87;;;6.47;;
53533;SDS011;39421;53.204;6.568;2022-10-23T03:36:56;8.27;;;7.23;;
53533;SDS011;39421;53.204;6.568;2022-10-23T03:39:21;8.90;;;7.00;;
53533;SDS011;39421;53.204;6.568;2022-10-23T03:41:47;8.57;;;7.30;;
53533;SDS011;39421;53.204;6.568;2022-10-23T03:44:13;8.10;;;6.88;;
53533;SDS011;39421;53.204;6.568;2022-10-23T03:46:38;8.98;;;7.50;;
53533;SDS011;39421;53.204;6.568;2022-10-23T03:49:04;9.10;;;7.33;;
53533;SDS011;39421;53.204;6.568;2022-10-23T03:51:30;9.25;;;7.70;;
53533;SDS011;39421;53.204;6.568;2022-10-23T03:53:56;7.88;;;7.07;;
53533;SDS011;39421;53.204;6.568;2022-10-23T03:56:22;8.65;;;7.40;;
53533;SDS011;39421;53.204;6.568;2022-10-23T03:58:47;9.30;;;7.85;;
53533;SDS011;39421;53.204;6.568;2022-10-23T04:01:13;10.20;;;7.90;;
53533;SDS011;39421;53.204;6.568;2022-10-23T04:03:39;9.73;;;7.80;;
53533;SDS011;39421;53.204;6.568;2022-10-23T04:06:05;10.15;;;8.23;;
53533;SDS011;39421;53.204;6.568;2022-10-23T04:08:31;9.70;;;7.85;;
53533;SDS011;39421;53.204;6.568;2022-10-23T04:10:56;11.73;;;8.43;;
53533;SDS011;39421;53.204;6.568;2022-10-23T04:13:22;10.13;;;8.43;;
53533;SDS011;39421;53.204;6.568;2022-10-23T04:15:48;10.93;;;8.63;;
53533;SDS011;39421;53.204;6.568;2022-10-23T04:18:15;12.02;;;8.98;;
53533;SDS011;39421;53.204;6.568;2022-10-23T04:20:41;10.93;;;9.13;;
53533;SDS011;39421;53.204;6.568;2022-10-23T04:23:07;11.07;;;8.90;;
53533;SDS011;39421;53.204;6.568;2022-10-23T04:25:33;12.02;;;8.95;;
53533;SDS011;39421;53.204;6.568;2022-10-23T04:27:58;11.70;;;9.48;;
53533;SDS011;39421;53.204;6.568;2022-10-23T04:30:24;11.65;;;9.35;;
53533;SDS011;39421;53.204;6.568;2022-10-23T04:32:50;11.77;;;9.52;;
53533;SDS011;39421;53.204;6.568;2022-10-23T04:35:16;14.70;;;10.13;;
53533;SDS011;39421;53.204;6.568;2022-10-23T04:37:42;13.40;;;10.63;;
53533;SDS011;39421;53.204;6.568;2022-10-23T04:40:09;12.52;;;10.20;;
53533;SDS011;39421;53.204;6.568;2022-10-23T04:42:34;12.50;;;10.10;;
53533;SDS011;39421;53.204;6.568;2022-10-23T04:45:00;13.40;;;9.80;;
53533;SDS011;39421;53.204;6.568;2022-10-23T04:47:26;13.05;;;10.07;;
53533;SDS011;39421;53.204;6.568;2022-10-23T04:49:51;14.90;;;10.87;;
53533;SDS011;39421;53.204;6.568;2022-10-23T04:52:17;15.00;;;11.18;;
53533;SDS011;39421;53.204;6.568;2022-10-23T04:54:43;13.07;;;10.52;;
53533;SDS011;39421;53.204;6.568;2022-10-23T04:57:08;13.45;;;10.82;;
53533;SDS011;39421;53.204;6.568;2022-10-23T04:59:34;13.43;;;10.38;;
53533;SDS011;39421;53.204;6.568;2022-10-23T05:02:00;13.07;;;10.27;;
53533;SDS011;39421;53.204;6.568;2022-10-23T05:04:25;14.30;;;10.05;;
53533;SDS011;39421;53.204;6.568;2022-10-23T05:06:51;15.10;;;10.57;;
53533;SDS011;39421;53.204;6.568;2022-10-23T05:09:17;14.25;;;10.35;;
53533;SDS011;39421;53.204;6.568;2022-10-23T05:11:42;14.70;;;10.00;;
53533;SDS011;39421;53.204;6.568;2022-10-23T05:14:08;13.38;;;10.45;;
53533;SDS011;39421;53.204;6.568;2022-10-23T05:19:20;14.10;;;10.80;;
53533;SDS011;39421;53.204;6.568;2022-10-23T05:21:50;13.40;;;10.32;;
53533;SDS011;39421;53.204;6.568;2022-10-23T05:24:20;13.57;;;10.00;;
53533;SDS011;39421;53.204;6.568;2022-10-23T05:26:46;13.63;;;10.15;;
53533;SDS011;39421;53.204;6.568;2022-10-23T05:29:15;14.40;;;9.93;;
53533;SDS011;39421;53.204;6.568;2022-10-23T05:31:42;12.83;;;9.63;;
53533;SDS011;39421;53.204;6.568;2022-10-23T05:34:08;13.63;;;10.43;;
53533;SDS011;39421;53.204;6.568;2022-10-23T05:36:35;16.88;;;10.60;;
53533;SDS011;39421;53.204;6.568;2022-10-23T05:39:02;14.73;;;10.30;;
53533;SDS011;39421;53.204;6.568;2022-10-23T05:41:29;15.02;;;10.48;;
53533;SDS011;39421;53.204;6.568;2022-10-23T05:43:54;15.77;;;10.80;;
53533;SDS011;39421;53.204;6.568;2022-10-23T05:46:20;13.73;;;10.35;;
53533;SDS011;39421;53.204;6.568;2022-10-23T05:48:50;13.82;;;10.20;;
53533;SDS011;39421;53.204;6.568;2022-10-23T05:51:17;14.25;;;10.07;;
53533;SDS011;39421;53.204;6.568;2022-10-23T05:53:46;15.23;;;10.77;;
53533;SDS011;39421;53.204;6.568;2022-10-23T05:56:16;13.88;;;10.85;;
53533;SDS011;39421;53.204;6.568;2022-10-23T05:58:42;14.07;;;11.10;;
53533;SDS011;39421;53.204;6.568;2022-10-23T06:01:10;16.00;;;11.00;;
53533;SDS011;39421;53.204;6.568;2022-10-23T06:03:38;16.00;;;11.27;;
53533;SDS011;39421;53.204;6.568;2022-10-23T06:06:05;13.90;;;10.60;;
53533;SDS011;39421;53.204;6.568;2022-10-23T06:08:31;17.23;;;11.45;;
53533;SDS011;39421;53.204;6.568;2022-10-23T06:11:03;14.27;;;11.10;;
53533;SDS011;39421;53.204;6.568;2022-10-23T06:13:30;16.77;;;11.63;;
53533;SDS011;39421;53.204;6.568;2022-10-23T06:15:56;16.60;;;10.43;;
53533;SDS011;39421;53.204;6.568;2022-10-23T06:18:21;14.33;;;10.63;;
53533;SDS011;39421;53.204;6.568;2022-10-23T06:20:47;14.03;;;10.50;;
53533;SDS011;39421;53.204;6.568;2022-10-23T06:23:13;14.50;;;10.73;;
53533;SDS011;39421;53.204;6.568;2022-10-23T06:25:38;13.00;;;10.50;;
53533;SDS011;39421;53.204;6.568;2022-10-23T06:28:04;15.67;;;10.80;;
53533;SDS011;39421;53.204;6.568;2022-10-23T06:30:30;14.70;;;10.60;;
53533;SDS011;39421;53.204;6.568;2022-10-23T06:32:55;14.80;;;10.90;;
53533;SDS011;39421;53.204;6.568;2022-10-23T06:35:21;16.27;;;11.07;;
53533;SDS011;39421;53.204;6.568;2022-10-23T06:37:47;15.37;;;11.00;;
53533;SDS011;39421;53.204;6.568;2022-10-23T06:40:12;15.40;;;10.97;;
53533;SDS011;39421;53.204;6.568;2022-10-23T06:42:38;13.52;;;10.27;;
53533;SDS011;39421;53.204;6.568;2022-10-23T06:45:04;14.38;;;11.20;;
53533;SDS011;39421;53.204;6.568;2022-10-23T06:47:30;15.83;;;11.03;;
53533;SDS011;39421;53.204;6.568;2022-10-23T06:49:56;16.87;;;10.83;;
53533;SDS011;39421;53.204;6.568;2022-10-23T06:52:21;15.00;;;10.45;;
53533;SDS011;39421;53.204;6.568;2022-10-23T06:54:47;14.48;;;10.30;;
53533;SDS011;39421;53.204;6.568;2022-10-23T06:57:13;14.73;;;11.05;;
53533;SDS011;39421;53.204;6.568;2022-10-23T06:59:38;14.00;;;10.25;;
53533;SDS011;39421;53.204;6.568;2022-10-23T07:02:04;14.63;;;10.40;;
53533;SDS011;39421;53.204;6.568;2022-10-23T07:04:30;14.68;;;10.40;;
53533;SDS011;39421;53.204;6.568;2022-10-23T07:06:55;13.20;;;10.02;;
53533;SDS011;39421;53.204;6.568;2022-10-23T07:09:22;15.32;;;10.43;;
53533;SDS011;39421;53.204;6.568;2022-10-23T07:11:48;14.35;;;10.82;;
53533;SDS011;39421;53.204;6.568;2022-10-23T07:14:13;14.18;;;9.85;;
53533;SDS011;39421;53.204;6.568;2022-10-23T07:16:39;14.48;;;10.10;;
53533;SDS011;39421;53.204;6.568;2022-10-23T07:19:05;13.38;;;10.13;;
53533;SDS011;39421;53.204;6.568;2022-10-23T07:21:31;13.18;;;9.85;;
53533;SDS011;39421;53.204;6.568;2022-10-23T07:24:01;13.07;;;9.65;;
53533;SDS011;39421;53.204;6.568;2022-10-23T07:26:27;13.65;;;9.77;;
53533;SDS011;39421;53.204;6.568;2022-10-23T07:28:53;15.18;;;10.48;;
53533;SDS011;39421;53.204;6.568;2022-10-23T07:31:20;15.98;;;10.63;;
53533;SDS011;39421;53.204;6.568;2022-10-23T07:33:46;15.65;;;9.88;;
53533;SDS011;39421;53.204;6.568;2022-10-23T07:36:12;13.93;;;10.37;;
53533;SDS011;39421;53.204;6.568;2022-10-23T07:38:38;15.67;;;10.23;;
53533;SDS011;39421;53.204;6.568;2022-10-23T07:41:04;14.60;;;9.53;;
53533;SDS011;39421;53.204;6.568;2022-10-23T07:43:30;14.88;;;9.98;;
53533;SDS011;39421;53.204;6.568;2022-10-23T07:45:56;13.97;;;9.73;;
53533;SDS011;39421;53.204;6.568;2022-10-23T07:48:21;15.27;;;9.53;;
53533;SDS011;39421;53.204;6.568;2022-10-23T07:50:48;15.00;;;9.55;;
53533;SDS011;39421;53.204;6.568;2022-10-23T07:53:19;14.82;;;9.63;;
53533;SDS011;39421;53.204;6.568;2022-10-23T07:55:56;14.98;;;9.20;;
53533;SDS011;39421;53.204;6.568;2022-10-23T07:58:24;16.38;;;9.35;;
53533;SDS011;39421;53.204;6.568;2022-10-23T08:00:55;15.85;;;9.85;;
53533;SDS011;39421;53.204;6.568;2022-10-23T08:03:23;13.88;;;9.82;;
53533;SDS011;39421;53.204;6.568;2022-10-23T08:05:53;12.73;;;8.82;;
53533;SDS011;39421;53.204;6.568;2022-10-23T08:08:22;15.10;;;9.70;;
53533;SDS011;39421;53.204;6.568;2022-10-23T08:10:49;13.07;;;8.95;;
53533;SDS011;39421;53.204;6.568;2022-10-23T08:13:16;13.07;;;9.10;;
53533;SDS011;39421;53.204;6.568;2022-10-23T08:15:44;13.68;;;9.05;;
53533;SDS011;39421;53.204;6.568;2022-10-23T08:18:12;13.57;;;9.07;;
53533;SDS011;39421;53.204;6.568;2022-10-23T08:20:38;13.38;;;8.60;;
53533;SDS011;39421;53.204;6.568;2022-10-23T08:23:08;10.52;;;8.60;;
53533;SDS011;39421;53.204;6.568;2022-10-23T08:25:37;12.45;;;8.82;;
53533;SDS011;39421;53.204;6.568;2022-10-23T08:28:04;12.95;;;8.80;;
53533;SDS011;39421;53.204;6.568;2022-10-23T08:30:30;14.43;;;9.25;;
53533;SDS011;39421;53.204;6.568;2022-10-23T08:32:56;11.57;;;8.73;;
53533;SDS011;39421;53.204;6.568;2022-10-23T08:35:22;13.30;;;8.77;;
53533;SDS011;39421;53.204;6.568;2022-10-23T08:37:48;15.73;;;9.15;;
53533;SDS011;39421;53.204;6.568;2022-10-23T08:40:14;13.05;;;9.07;;
53533;SDS011;39421;53.204;6.568;2022-10-23T08:42:45;13.30;;;8.85;;
53533;SDS011;39421;53.204;6.568;2022-10-23T08:47:52;12.40;;;8.68;;
53533;SDS011;39421;53.204;6.568;2022-10-23T08:50:40;13.50;;;9.13;;
53533;SDS011;39421;53.204;6.568;2022-10-23T08:53:13;14.38;;;9.00;;
53533;SDS011;39421;53.204;6.568;2022-10-23T08:55:44;12.57;;;9.15;;
53533;SDS011;39421;53.204;6.568;2022-10-23T08:58:17;13.60;;;8.55;;
53533;SDS011;39421;53.204;6.568;2022-10-23T09:00:53;12.75;;;9.00;;
53533;SDS011;39421;53.204;6.568;2022-10-23T09:03:19;12.18;;;8.80;;
53533;SDS011;39421;53.204;6.568;2022-10-23T09:08:46;14.65;;;9.05;;
53533;SDS011;39421;53.204;6.568;2022-10-23T09:19:29;12.25;;;9.02;;
53533;SDS011;39421;53.204;6.568;2022-10-23T09:21:55;14.23;;;8.50;;
53533;SDS011;39421;53.204;6.568;2022-10-23T09:24:23;13.98;;;8.85;;
53533;SDS011;39421;53.204;6.568;2022-10-23T09:26:51;10.70;;;8.30;;
53533;SDS011;39421;53.204;6.568;2022-10-23T09:29:28;12.43;;;8.18;;
53533;SDS011;39421;53.204;6.568;2022-10-23T09:32:00;11.55;;;8.57;;
53533;SDS011;39421;53.204;6.568;2022-10-23T09:34:29;12.00;;;8.07;;
53533;SDS011;39421;53.204;6.568;2022-10-23T09:36:56;11.98;;;8.13;;
53533;SDS011;39421;53.204;6.568;2022-10-23T09:41:54;12.75;;;7.53;;
53533;SDS011;39421;53.204;6.568;2022-10-23T09:44:22;10.93;;;7.82;;
53533;SDS011;39421;53.204;6.568;2022-10-23T09:46:51;9.45;;;6.95;;
53533;SDS011;39421;53.204;6.568;2022-10-23T09:54:23;12.13;;;6.80;;
53533;SDS011;39421;53.204;6.568;2022-10-23T09:56:49;11.40;;;6.63;;
53533;SDS011;39421;53.204;6.568;2022-10-23T09:59:23;10.18;;;6.63;;
53533;SDS011;39421;53.204;6.568;2022-10-23T10:02:01;10.73;;;6.40;;
53533;SDS011;39421;53.204;6.568;2022-10-23T10:04:43;9.15;;;6.47;;
53533;SDS011;39421;53.204;6.568;2022-10-23T10:07:19;9.50;;;6.13;;
53533;SDS011;39421;53.204;6.568;2022-10-23T10:09:49;9.25;;;6.22;;
53533;SDS011;39421;53.204;6.568;2022-10-23T10:14:54;9.20;;;5.97;;
53533;SDS011;39421;53.204;6.568;2022-10-23T10:25:43;8.57;;;5.82;;
53533;SDS011;39421;53.204;6.568;2022-10-23T10:34:22;9.13;;;5.50;;
53533;SDS011;39421;53.204;6.568;2022-10-23T10:39:03;9.23;;;5.57;;
53533;SDS011;39421;53.204;6.568;2022-10-23T10:47:13;8.05;;;5.50;;
53533;SDS011;39421;53.204;6.568;2022-10-23T10:49:45;9.10;;;5.40;;
53533;SDS011;39421;53.204;6.568;2022-10-23T10:52:26;10.63;;;5.60;;
53533;SDS011;39421;53.204;6.568;2022-10-23T11:00:33;7.97;;;5.00;;
53533;SDS011;39421;53.204;6.568;2022-10-23T11:03:00;7.03;;;5.10;;
53533;SDS011;39421;53.204;6.568;2022-10-23T11:05:46;8.10;;;5.07;;
53533;SDS011;39421;53.204;6.568;2022-10-23T11:08:17;7.20;;;4.95;;
53533;SDS011;39421;53.204;6.568;2022-10-23T11:10:48;8.52;;;5.47;;
53533;SDS011;39421;53.204;6.568;2022-10-23T11:13:34;8.98;;;5.60;;
53533;SDS011;39421;53.204;6.568;2022-10-23T11:21:37;7.18;;;5.25;;
53533;SDS011;39421;53.204;6.568;2022-10-23T11:27:00;8.32;;;5.45;;
53533;SDS011;39421;53.204;6.568;2022-10-23T11:30:03;8.15;;;5.43;;
53533;SDS011;39421;53.204;6.568;2022-10-23T11:38:33;8.18;;;5.20;;
53533;SDS011;39421;53.204;6.568;2022-10-23T11:41:03;8.53;;;4.97;;
53533;SDS011;39421;53.204;6.568;2022-10-23T11:43:32;7.88;;;4.88;;
53533;SDS011;39421;53.204;6.568;2022-10-23T11:46:11;7.53;;;4.72;;
53533;SDS011;39421;53.204;6.568;2022-10-23T11:48:42;8.05;;;5.22;;
53533;SDS011;39421;53.204;6.568;2022-10-23T11:57:21;8.10;;;4.90;;
53533;SDS011;39421;53.204;6.568;2022-10-23T11:59:32;9.03;;;4.90;;
53533;SDS011;39421;53.204;6.568;2022-10-23T12:02:00;7.43;;;5.10;;
53533;SDS011;39421;53.204;6.568;2022-10-23T12:04:37;7.77;;;4.67;;
53533;SDS011;39421;53.204;6.568;2022-10-23T12:07:19;7.22;;;4.88;;
53533;SDS011;39421;53.204;6.568;2022-10-23T12:09:56;8.65;;;5.20;;
53533;SDS011;39421;53.204;6.568;2022-10-23T12:12:52;7.32;;;4.97;;
53533;SDS011;39421;53.204;6.568;2022-10-23T12:15:21;8.97;;;4.77;;
53533;SDS011;39421;53.204;6.568;2022-10-23T12:17:49;8.60;;;4.82;;
53533;SDS011;39421;53.204;6.568;2022-10-23T12:20:21;7.40;;;4.63;;
53533;SDS011;39421;53.204;6.568;2022-10-23T12:22:59;8.30;;;4.65;;
53533;SDS011;39421;53.204;6.568;2022-10-23T12:39:40;7.57;;;4.37;;
53533;SDS011;39421;53.204;6.568;2022-10-23T12:42:10;8.83;;;4.37;;
53533;SDS011;39421;53.204;6.568;2022-10-23T12:44:56;8.63;;;4.93;;
53533;SDS011;39421;53.204;6.568;2022-10-23T12:47:28;7.65;;;4.45;;
53533;SDS011;39421;53.204;6.568;2022-10-23T12:49:55;6.68;;;4.28;;
53533;SDS011;39421;53.204;6.568;2022-10-23T12:52:20;7.23;;;4.40;;
53533;SDS011;39421;53.204;6.568;2022-10-23T12:54:48;9.32;;;4.63;;
53533;SDS011;39421;53.204;6.568;2022-10-23T12:57:18;6.88;;;4.35;;
53533;SDS011;39421;53.204;6.568;2022-10-23T12:59:47;7.70;;;4.88;;
53533;SDS011;39421;53.204;6.568;2022-10-23T13:02:23;6.83;;;3.93;;
53533;SDS011;39421;53.204;6.568;2022-10-23T13:04:51;7.95;;;4.25;;
53533;SDS011;39421;53.204;6.568;2022-10-23T13:07:20;6.32;;;4.20;;
53533;SDS011;39421;53.204;6.568;2022-10-23T13:09:50;6.43;;;4.53;;
53533;SDS011;39421;53.204;6.568;2022-10-23T13:12:20;6.88;;;4.35;;
53533;SDS011;39421;53.204;6.568;2022-10-23T13:20:24;5.97;;;4.00;;
53533;SDS011;39421;53.204;6.568;2022-10-23T13:28:04;6.85;;;3.53;;
53533;SDS011;39421;53.204;6.568;2022-10-23T13:30:55;8.75;;;4.15;;
53533;SDS011;39421;53.204;6.568;2022-10-23T13:33:44;5.32;;;3.60;;
53533;SDS011;39421;53.204;6.568;2022-10-23T13:38:43;6.57;;;3.85;;
53533;SDS011;39421;53.204;6.568;2022-10-23T13:41:12;7.18;;;3.55;;
53533;SDS011;39421;53.204;6.568;2022-10-23T13:43:43;4.50;;;3.35;;
53533;SDS011;39421;53.204;6.568;2022-10-23T13:46:17;6.83;;;4.07;;
53533;SDS011;39421;53.204;6.568;2022-10-23T13:48:44;5.50;;;3.75;;
53533;SDS011;39421;53.204;6.568;2022-10-23T13:53:38;5.88;;;3.45;;
53533;SDS011;39421;53.204;6.568;2022-10-23T13:56:04;7.22;;;3.92;;
53533;SDS011;39421;53.204;6.568;2022-10-23T13:58:30;5.95;;;3.70;;
53533;SDS011;39421;53.204;6.568;2022-10-23T14:00:56;5.65;;;3.50;;
53533;SDS011;39421;53.204;6.568;2022-10-23T14:03:22;6.70;;;3.70;;
53533;SDS011;39421;53.204;6.568;2022-10-23T14:05:49;7.15;;;3.90;;
53533;SDS011;39421;53.204;6.568;2022-10-23T14:08:15;5.60;;;3.63;;
53533;SDS011;39421;53.204;6.568;2022-10-23T14:10:41;7.32;;;3.90;;
53533;SDS011;39421;53.204;6.568;2022-10-23T14:13:07;7.93;;;3.85;;
53533;SDS011;39421;53.204;6.568;2022-10-23T14:15:32;6.47;;;3.58;;
53533;SDS011;39421;53.204;6.568;2022-10-23T14:17:58;5.95;;;3.50;;
53533;SDS011;39421;53.204;6.568;2022-10-23T14:20:24;8.13;;;3.90;;
53533;SDS011;39421;53.204;6.568;2022-10-23T14:22:49;7.37;;;3.87;;
53533;SDS011;39421;53.204;6.568;2022-10-23T14:25:15;5.20;;;3.53;;
53533;SDS011;39421;53.204;6.568;2022-10-23T14:27:41;4.77;;;3.57;;
53533;SDS011;39421;53.204;6.568;2022-10-23T14:30:07;8.10;;;3.70;;
53533;SDS011;39421;53.204;6.568;2022-10-23T14:32:33;6.57;;;3.65;;
53533;SDS011;39421;53.204;6.568;2022-10-23T14:34:58;5.63;;;3.25;;
53533;SDS011;39421;53.204;6.568;2022-10-23T14:37:28;6.30;;;3.72;;
53533;SDS011;39421;53.204;6.568;2022-10-23T14:39:58;5.57;;;3.50;;
53533;SDS011;39421;53.204;6.568;2022-10-23T14:42:24;6.25;;;3.58;;
53533;SDS011;39421;53.204;6.568;2022-10-23T14:44:51;6.55;;;3.75;;
53533;SDS011;39421;53.204;6.568;2022-10-23T14:47:17;5.85;;;3.28;;
53533;SDS011;39421;53.204;6.568;2022-10-23T14:49:43;6.05;;;3.40;;
53533;SDS011;39421;53.204;6.568;2022-10-23T14:52:13;5.95;;;3.60;;
53533;SDS011;39421;53.204;6.568;2022-10-23T14:54:39;6.65;;;3.47;;
53533;SDS011;39421;53.204;6.568;2022-10-23T14:57:04;6.33;;;3.50;;
53533;SDS011;39421;53.204;6.568;2022-10-23T14:59:30;5.30;;;3.60;;
53533;SDS011;39421;53.204;6.568;2022-10-23T15:01:56;6.60;;;3.40;;
53533;SDS011;39421;53.204;6.568;2022-10-23T15:04:21;6.20;;;3.30;;
53533;SDS011;39421;53.204;6.568;2022-10-23T15:06:47;7.28;;;3.53;;
53533;SDS011;39421;53.204;6.568;2022-10-23T15:09:13;6.33;;;3.87;;
53533;SDS011;39421;53.204;6.568;2022-10-23T15:11:39;5.78;;;3.70;;
53533;SDS011;39421;53.204;6.568;2022-10-23T15:14:05;6.32;;;3.30;;
53533;SDS011;39421;53.204;6.568;2022-10-23T15:16:31;7.33;;;3.40;;
53533;SDS011;39421;53.204;6.568;2022-10-23T15:18:57;6.20;;;3.50;;
53533;SDS011;39421;53.204;6.568;2022-10-23T15:21:22;5.13;;;3.40;;
53533;SDS011;39421;53.204;6.568;2022-10-23T15:23:48;4.95;;;3.25;;
53533;SDS011;39421;53.204;6.568;2022-10-23T15:26:15;6.40;;;3.70;;
53533;SDS011;39421;53.204;6.568;2022-10-23T15:28:52;6.68;;;3.60;;
53533;SDS011;39421;53.204;6.568;2022-10-23T15:33:54;5.82;;;3.45;;
53533;SDS011;39421;53.204;6.568;2022-10-23T15:36:21;4.63;;;3.03;;
53533;SDS011;39421;53.204;6.568;2022-10-23T15:38:47;5.60;;;3.10;;
53533;SDS011;39421;53.204;6.568;2022-10-23T15:41:14;7.35;;;3.15;;
53533;SDS011;39421;53.204;6.568;2022-10-23T15:43:42;5.35;;;3.38;;
53533;SDS011;39421;53.204;6.568;2022-10-23T15:46:08;7.55;;;3.47;;
53533;SDS011;39421;53.204;6.568;2022-10-23T15:48:34;6.13;;;3.53;;
53533;SDS011;39421;53.204;6.568;2022-10-23T15:50:59;6.78;;;3.58;;
53533;SDS011;39421;53.204;6.568;2022-10-23T15:53:25;6.63;;;3.60;;
53533;SDS011;39421;53.204;6.568;2022-10-23T15:55:51;6.68;;;3.58;;
53533;SDS011;39421;53.204;6.568;2022-10-23T15:58:16;4.93;;;3.28;;
53533;SDS011;39421;53.204;6.568;2022-10-23T16:00:42;5.88;;;3.33;;
53533;SDS011;39421;53.204;6.568;2022-10-23T16:03:08;6.17;;;3.47;;
53533;SDS011;39421;53.204;6.568;2022-10-23T16:05:34;6.43;;;3.40;;
53533;SDS011;39421;53.204;6.568;2022-10-23T16:08:00;4.60;;;3.20;;
53533;SDS011;39421;53.204;6.568;2022-10-23T16:10:26;7.13;;;3.50;;
53533;SDS011;39421;53.204;6.568;2022-10-23T16:12:52;6.00;;;3.38;;
53533;SDS011;39421;53.204;6.568;2022-10-23T16:15:18;6.47;;;3.45;;
53533;SDS011;39421;53.204;6.568;2022-10-23T16:17:43;6.83;;;3.20;;
53533;SDS011;39421;53.204;6.568;2022-10-23T16:20:09;6.73;;;3.60;;
53533;SDS011;39421;53.204;6.568;2022-10-23T16:22:35;7.90;;;3.70;;
53533;SDS011;39421;53.204;6.568;2022-10-23T16:25:01;6.20;;;3.53;;
53533;SDS011;39421;53.204;6.568;2022-10-23T16:27:26;5.87;;;3.50;;
53533;SDS011;39421;53.204;6.568;2022-10-23T16:29:52;5.20;;;3.70;;
53533;SDS011;39421;53.204;6.568;2022-10-23T16:32:18;5.57;;;3.67;;
53533;SDS011;39421;53.204;6.568;2022-10-23T16:34:44;8.38;;;3.90;;
53533;SDS011;39421;53.204;6.568;2022-10-23T16:37:09;5.43;;;3.90;;
53533;SDS011;39421;53.204;6.568;2022-10-23T16:39:35;5.27;;;3.77;;
53533;SDS011;39421;53.204;6.568;2022-10-23T16:42:02;7.40;;;3.78;;
53533;SDS011;39421;53.204;6.568;2022-10-23T16:44:28;6.15;;;3.30;;
53533;SDS011;39421;53.204;6.568;2022-10-23T16:46:54;5.57;;;3.40;;
53533;SDS011;39421;53.204;6.568;2022-10-23T16:49:19;5.32;;;3.50;;
53533;SDS011;39421;53.204;6.568;2022-10-23T16:51:45;5.07;;;3.50;;
53533;SDS011;39421;53.204;6.568;2022-10-23T16:54:11;7.25;;;3.22;;
53533;SDS011;39421;53.204;6.568;2022-10-23T16:56:38;6.57;;;3.40;;
53533;SDS011;39421;53.204;6.568;2022-10-23T16:59:04;7.28;;;3.63;;
53533;SDS011;39421;53.204;6.568;2022-10-23T17:01:30;7.18;;;3.28;;
53533;SDS011;39421;53.204;6.568;2022-10-23T17:03:58;4.78;;;2.92;;
53533;SDS011;39421;53.204;6.568;2022-10-23T17:06:26;7.18;;;3.60;;
53533;SDS011;39421;53.204;6.568;2022-10-23T17:08:55;5.25;;;3.15;;